Terminal Aerodrome Forecast
Issued by NWS

Home | Current Version | Previous Version | Text Only | Print | Product List | Glossary On
Versions: 1 2 3 4 5 6 7 8 9 10 11 12 13 14 15 16 17 18 19 20 21 22 23 24 25
000
FTUS45 KGJT 061730
TAFASE
TAF
KASE 061730Z 0618/0718 VRB03KT P6SM VCSH FEW040 SCT060 SCT090
     FM062000 34007KT P6SM VCTS SCT060CB BKN090
      TEMPO 0622/0702 VRB15G30KT 5SM TSRA BKN060CB
     FM070400 21005KT P6SM SCT060 BKN120=

USA.gov is the U.S. government's official web portal to all federal, state and local government web resources and services.